sensor_id;sensor_type;location;lat;lon;timestamp;temperature;humidity
70807;DHT22;58882;52.170;5.386;2023-03-16T00:02:16;15.00;34.80
70807;DHT22;58882;52.170;5.386;2023-03-16T00:04:56;15.00;34.90
70807;DHT22;58882;52.170;5.386;2023-03-16T00:07:43;15.00;35.00
70807;DHT22;58882;52.170;5.386;2023-03-16T00:10:23;15.00;35.10
70807;DHT22;58882;52.170;5.386;2023-03-16T00:13:10;15.00;35.30
70807;DHT22;58882;52.170;5.386;2023-03-16T00:16:01;15.00;35.30
70807;DHT22;58882;52.170;5.386;2023-03-16T00:18:49;15.00;35.40
70807;DHT22;58882;52.170;5.386;2023-03-16T00:21:36;15.00;35.40
70807;DHT22;58882;52.170;5.386;2023-03-16T00:24:30;15.00;35.40
70807;DHT22;58882;52.170;5.386;2023-03-16T00:27:03;15.00;35.40
70807;DHT22;58882;52.170;5.386;2023-03-16T00:30:00;15.00;35.40
70807;DHT22;58882;52.170;5.386;2023-03-16T00:32:42;15.00;35.30
70807;DHT22;58882;52.170;5.386;2023-03-16T00:35:29;15.00;35.40
70807;DHT22;58882;52.170;5.386;2023-03-16T00:38:13;15.00;35.50
70807;DHT22;58882;52.170;5.386;2023-03-16T00:41:07;15.00;35.60
70807;DHT22;58882;52.170;5.386;2023-03-16T00:43:42;15.00;35.80
70807;DHT22;58882;52.170;5.386;2023-03-16T00:46:37;15.00;35.90
70807;DHT22;58882;52.170;5.386;2023-03-16T00:49:10;14.90;36.00
70807;DHT22;58882;52.170;5.386;2023-03-16T00:52:06;14.90;36.10
70807;DHT22;58882;52.170;5.386;2023-03-16T00:54:46;15.00;36.10
70807;DHT22;58882;52.170;5.386;2023-03-16T00:57:34;14.90;36.20
70807;DHT22;58882;52.170;5.386;2023-03-16T01:00:14;15.00;36.40
70807;DHT22;58882;52.170;5.386;2023-03-16T01:03:02;14.90;36.30
70807;DHT22;58882;52.170;5.386;2023-03-16T01:05:42;14.90;36.50
70807;DHT22;58882;52.170;5.386;2023-03-16T01:08:29;14.90;36.50
70807;DHT22;58882;52.170;5.386;2023-03-16T01:11:11;14.90;36.60
70807;DHT22;58882;52.170;5.386;2023-03-16T01:13:59;14.90;36.70
70807;DHT22;58882;52.170;5.386;2023-03-16T01:16:39;14.90;36.90
70807;DHT22;58882;52.170;5.386;2023-03-16T01:19:26;14.90;37.00
70807;DHT22;58882;52.170;5.386;2023-03-16T01:22:15;14.90;37.10
70807;DHT22;58882;52.170;5.386;2023-03-16T01:24:55;14.90;37.20
70807;DHT22;58882;52.170;5.386;2023-03-16T01:27:42;14.90;37.30
70807;DHT22;58882;52.170;5.386;2023-03-16T01:30:22;14.90;37.30
70807;DHT22;58882;52.170;5.386;2023-03-16T01:33:09;14.90;37.40
70807;DHT22;58882;52.170;5.386;2023-03-16T01:36:01;14.90;37.50
70807;DHT22;58882;52.170;5.386;2023-03-16T01:39:02;15.00;37.60
70807;DHT22;58882;52.170;5.386;2023-03-16T01:41:41;14.90;37.60
70807;DHT22;58882;52.170;5.386;2023-03-16T01:44:50;15.00;37.90
70807;DHT22;58882;52.170;5.386;2023-03-16T01:47:34;14.90;38.10
70807;DHT22;58882;52.170;5.386;2023-03-16T01:50:21;15.00;38.10
70807;DHT22;58882;52.170;5.386;2023-03-16T01:53:01;14.90;39.20
70807;DHT22;58882;52.170;5.386;2023-03-16T01:55:48;15.00;38.20
70807;DHT22;58882;52.170;5.386;2023-03-16T01:58:30;15.00;38.30
70807;DHT22;58882;52.170;5.386;2023-03-16T02:01:17;15.00;38.30
70807;DHT22;58882;52.170;5.386;2023-03-16T02:04:07;15.00;38.30
70807;DHT22;58882;52.170;5.386;2023-03-16T02:06:59;15.00;38.10
70807;DHT22;58882;52.170;5.386;2023-03-16T02:09:40;14.90;38.20
70807;DHT22;58882;52.170;5.386;2023-03-16T02:12:28;14.90;38.40
70807;DHT22;58882;52.170;5.386;2023-03-16T02:15:23;14.90;38.60
70807;DHT22;58882;52.170;5.386;2023-03-16T02:17:58;14.90;38.90
70807;DHT22;58882;52.170;5.386;2023-03-16T02:24:04;14.90;39.80
70807;DHT22;58882;52.170;5.386;2023-03-16T02:26:55;14.90;38.70
70807;DHT22;58882;52.170;5.386;2023-03-16T02:32:58;14.90;38.90
70807;DHT22;58882;52.170;5.386;2023-03-16T02:35:39;14.90;39.90
70807;DHT22;58882;52.170;5.386;2023-03-16T02:38:34;14.90;39.00
70807;DHT22;58882;52.170;5.386;2023-03-16T02:41:18;14.90;39.00
70807;DHT22;58882;52.170;5.386;2023-03-16T02:44:21;14.90;39.00
70807;DHT22;58882;52.170;5.386;2023-03-16T02:47:08;14.90;39.10
70807;DHT22;58882;52.170;5.386;2023-03-16T02:49:57;14.90;39.10
70807;DHT22;58882;52.170;5.386;2023-03-16T02:52:38;14.90;39.30
70807;DHT22;58882;52.170;5.386;2023-03-16T02:55:26;14.90;39.30
70807;DHT22;58882;52.170;5.386;2023-03-16T02:58:06;14.80;39.30
70807;DHT22;58882;52.170;5.386;2023-03-16T03:00:53;14.80;39.40
70807;DHT22;58882;52.170;5.386;2023-03-16T03:03:34;14.80;39.50
70807;DHT22;58882;52.170;5.386;2023-03-16T03:06:21;14.80;39.60
70807;DHT22;58882;52.170;5.386;2023-03-16T03:09:04;14.80;39.70
70807;DHT22;58882;52.170;5.386;2023-03-16T03:11:59;14.80;39.70
70807;DHT22;58882;52.170;5.386;2023-03-16T03:14:32;14.80;40.10
70807;DHT22;58882;52.170;5.386;2023-03-16T03:17:27;14.80;40.00
70807;DHT22;58882;52.170;5.386;2023-03-16T03:20:10;14.80;40.00
70807;DHT22;58882;52.170;5.386;2023-03-16T03:23:04;14.80;40.10
70807;DHT22;58882;52.170;5.386;2023-03-16T03:25:44;14.80;40.00
70807;DHT22;58882;52.170;5.386;2023-03-16T03:28:31;14.80;40.00
70807;DHT22;58882;52.170;5.386;2023-03-16T03:31:18;14.80;40.10
70807;DHT22;58882;52.170;5.386;2023-03-16T03:34:05;14.80;40.10
70807;DHT22;58882;52.170;5.386;2023-03-16T03:36:45;14.80;40.10
70807;DHT22;58882;52.170;5.386;2023-03-16T03:39:32;14.80;40.20
70807;DHT22;58882;52.170;5.386;2023-03-16T03:42:26;14.90;40.40
70807;DHT22;58882;52.170;5.386;2023-03-16T03:44:59;14.90;40.30
70807;DHT22;58882;52.170;5.386;2023-03-16T03:47:53;14.90;40.40
70807;DHT22;58882;52.170;5.386;2023-03-16T03:50:36;14.90;40.40
70807;DHT22;58882;52.170;5.386;2023-03-16T03:53:41;14.90;40.50
70807;DHT22;58882;52.170;5.386;2023-03-16T03:56:47;14.90;40.50
70807;DHT22;58882;52.170;5.386;2023-03-16T03:59:34;14.80;41.50
70807;DHT22;58882;52.170;5.386;2023-03-16T04:02:38;14.80;40.50
70807;DHT22;58882;52.170;5.386;2023-03-16T04:05:32;14.80;40.60
70807;DHT22;58882;52.170;5.386;2023-03-16T04:08:12;14.80;40.70
70807;DHT22;58882;52.170;5.386;2023-03-16T04:11:06;14.90;40.70
70807;DHT22;58882;52.170;5.386;2023-03-16T04:13:39;14.80;40.90
70807;DHT22;58882;52.170;5.386;2023-03-16T04:16:33;14.90;41.20
70807;DHT22;58882;52.170;5.386;2023-03-16T04:19:17;14.80;41.60
70807;DHT22;58882;52.170;5.386;2023-03-16T04:22:04;14.90;41.90
70807;DHT22;58882;52.170;5.386;2023-03-16T04:24:46;14.90;41.80
70807;DHT22;58882;52.170;5.386;2023-03-16T04:27:33;14.90;41.90
70807;DHT22;58882;52.170;5.386;2023-03-16T04:30:16;14.80;41.90
70807;DHT22;58882;52.170;5.386;2023-03-16T04:33:12;14.80;41.90
70807;DHT22;58882;52.170;5.386;2023-03-16T04:35:54;14.80;41.80
70807;DHT22;58882;52.170;5.386;2023-03-16T04:38:44;14.90;41.90
70807;DHT22;58882;52.170;5.386;2023-03-16T04:41:25;14.80;41.80
70807;DHT22;58882;52.170;5.386;2023-03-16T04:44:18;14.90;41.80
70807;DHT22;58882;52.170;5.386;2023-03-16T04:46:58;14.80;42.00
70807;DHT22;58882;52.170;5.386;2023-03-16T04:49:46;14.80;41.80
70807;DHT22;58882;52.170;5.386;2023-03-16T04:52:26;14.80;42.00
70807;DHT22;58882;52.170;5.386;2023-03-16T04:55:20;14.80;41.80
70807;DHT22;58882;52.170;5.386;2023-03-16T04:57:54;14.80;41.90
70807;DHT22;58882;52.170;5.386;2023-03-16T05:00:50;14.80;41.80
70807;DHT22;58882;52.170;5.386;2023-03-16T05:03:27;14.70;41.90
70807;DHT22;58882;52.170;5.386;2023-03-16T05:06:21;14.70;41.90
70807;DHT22;58882;52.170;5.386;2023-03-16T05:08:58;14.70;41.90
70807;DHT22;58882;52.170;5.386;2023-03-16T05:11:54;14.70;41.90
70807;DHT22;58882;52.170;5.386;2023-03-16T05:14:35;14.70;41.90
70807;DHT22;58882;52.170;5.386;2023-03-16T05:17:34;14.70;42.00
70807;DHT22;58882;52.170;5.386;2023-03-16T05:20:14;14.70;41.90
70807;DHT22;58882;52.170;5.386;2023-03-16T05:23:09;14.60;41.80
70807;DHT22;58882;52.170;5.386;2023-03-16T05:25:47;14.60;42.00
70807;DHT22;58882;52.170;5.386;2023-03-16T05:28:45;14.70;42.30
70807;DHT22;58882;52.170;5.386;2023-03-16T05:31:28;14.70;42.20
70807;DHT22;58882;52.170;5.386;2023-03-16T05:34:26;14.70;42.00
70807;DHT22;58882;52.170;5.386;2023-03-16T05:37:06;14.70;42.40
70807;DHT22;58882;52.170;5.386;2023-03-16T05:39:53;14.70;42.40
70807;DHT22;58882;52.170;5.386;2023-03-16T05:42:33;14.70;43.40
70807;DHT22;58882;52.170;5.386;2023-03-16T05:45:20;14.70;42.40
70807;DHT22;58882;52.170;5.386;2023-03-16T05:48:07;14.70;42.30
70807;DHT22;58882;52.170;5.386;2023-03-16T05:51:03;14.70;42.70
70807;DHT22;58882;52.170;5.386;2023-03-16T05:53:45;14.70;42.70
70807;DHT22;58882;52.170;5.386;2023-03-16T05:56:47;14.70;42.80
70807;DHT22;58882;52.170;5.386;2023-03-16T05:59:28;14.70;42.90
70807;DHT22;58882;52.170;5.386;2023-03-16T06:02:16;14.70;42.90
70807;DHT22;58882;52.170;5.386;2023-03-16T06:04:56;14.70;43.10
70807;DHT22;58882;52.170;5.386;2023-03-16T06:07:51;14.70;43.10
70807;DHT22;58882;52.170;5.386;2023-03-16T06:10:32;14.60;42.90
70807;DHT22;58882;52.170;5.386;2023-03-16T06:13:26;14.60;43.10
70807;DHT22;58882;52.170;5.386;2023-03-16T06:16:07;14.60;43.00
70807;DHT22;58882;52.170;5.386;2023-03-16T06:18:55;14.60;42.80
70807;DHT22;58882;52.170;5.386;2023-03-16T06:21:35;14.60;42.90
70807;DHT22;58882;52.170;5.386;2023-03-16T06:24:23;14.50;42.70
70807;DHT22;58882;52.170;5.386;2023-03-16T06:27:03;14.60;43.70
70807;DHT22;58882;52.170;5.386;2023-03-16T06:30:09;14.50;42.60
70807;DHT22;58882;52.170;5.386;2023-03-16T06:32:50;14.50;42.60
70807;DHT22;58882;52.170;5.386;2023-03-16T06:35:39;14.50;42.60
70807;DHT22;58882;52.170;5.386;2023-03-16T06:38:29;14.50;42.70
70807;DHT22;58882;52.170;5.386;2023-03-16T06:41:38;14.50;42.80
70807;DHT22;58882;52.170;5.386;2023-03-16T06:44:19;14.50;42.50
70807;DHT22;58882;52.170;5.386;2023-03-16T06:47:16;14.60;42.40
70807;DHT22;58882;52.170;5.386;2023-03-16T06:49:56;14.60;42.30
70807;DHT22;58882;52.170;5.386;2023-03-16T06:52:45;14.70;42.30
70807;DHT22;58882;52.170;5.386;2023-03-16T06:55:29;14.70;42.10
70807;DHT22;58882;52.170;5.386;2023-03-16T06:58:16;14.70;42.00
70807;DHT22;58882;52.170;5.386;2023-03-16T07:01:00;14.70;41.90
70807;DHT22;58882;52.170;5.386;2023-03-16T07:03:47;14.80;42.20
70807;DHT22;58882;52.170;5.386;2023-03-16T07:06:30;14.80;42.20
70807;DHT22;58882;52.170;5.386;2023-03-16T07:09:17;15.00;42.10
70807;DHT22;58882;52.170;5.386;2023-03-16T07:11:57;15.10;41.90
70807;DHT22;58882;52.170;5.386;2023-03-16T07:14:44;15.20;41.60
70807;DHT22;58882;52.170;5.386;2023-03-16T07:17:26;15.40;41.50
70807;DHT22;58882;52.170;5.386;2023-03-16T07:20:13;15.40;41.20
70807;DHT22;58882;52.170;5.386;2023-03-16T07:23:03;15.50;41.10
70807;DHT22;58882;52.170;5.386;2023-03-16T07:25:43;15.60;41.00
70807;DHT22;58882;52.170;5.386;2023-03-16T07:28:30;15.60;40.70
70807;DHT22;58882;52.170;5.386;2023-03-16T07:31:15;15.70;40.70
70807;DHT22;58882;52.170;5.386;2023-03-16T07:34:14;15.70;40.50
70807;DHT22;58882;52.170;5.386;2023-03-16T07:36:57;15.70;40.40
70807;DHT22;58882;52.170;5.386;2023-03-16T07:39:43;15.80;40.30
70807;DHT22;58882;52.170;5.386;2023-03-16T07:42:24;15.80;40.10
70807;DHT22;58882;52.170;5.386;2023-03-16T07:45:29;15.90;40.20
70807;DHT22;58882;52.170;5.386;2023-03-16T07:48:10;15.90;40.00
70807;DHT22;58882;52.170;5.386;2023-03-16T07:51:05;15.90;40.00
70807;DHT22;58882;52.170;5.386;2023-03-16T07:53:47;15.90;39.90
70807;DHT22;58882;52.170;5.386;2023-03-16T07:56:41;15.90;40.90
70807;DHT22;58882;52.170;5.386;2023-03-16T07:59:28;15.90;39.80
70807;DHT22;58882;52.170;5.386;2023-03-16T08:02:19;15.90;40.70
70807;DHT22;58882;52.170;5.386;2023-03-16T08:04:53;15.90;39.70
70807;DHT22;58882;52.170;5.386;2023-03-16T08:07:52;15.90;39.70
70807;DHT22;58882;52.170;5.386;2023-03-16T08:10:34;15.90;39.70
70807;DHT22;58882;52.170;5.386;2023-03-16T08:13:33;15.90;39.70
70807;DHT22;58882;52.170;5.386;2023-03-16T08:16:07;15.90;39.70
70807;DHT22;58882;52.170;5.386;2023-03-16T08:19:02;15.90;39.70
70807;DHT22;58882;52.170;5.386;2023-03-16T08:21:42;15.90;39.60
70807;DHT22;58882;52.170;5.386;2023-03-16T08:24:45;16.00;39.70
70807;DHT22;58882;52.170;5.386;2023-03-16T08:27:25;16.00;39.60
70807;DHT22;58882;52.170;5.386;2023-03-16T08:30:19;16.00;39.60
70807;DHT22;58882;52.170;5.386;2023-03-16T08:33:18;16.10;40.60
70807;DHT22;58882;52.170;5.386;2023-03-16T08:36:15;16.10;39.40
70807;DHT22;58882;52.170;5.386;2023-03-16T08:38:51;16.10;39.30
70807;DHT22;58882;52.170;5.386;2023-03-16T08:41:50;16.10;39.40
70807;DHT22;58882;52.170;5.386;2023-03-16T08:44:39;16.10;39.40
70807;DHT22;58882;52.170;5.386;2023-03-16T08:47:26;16.10;39.40
70807;DHT22;58882;52.170;5.386;2023-03-16T08:50:09;16.10;40.20
70807;DHT22;58882;52.170;5.386;2023-03-16T08:53:03;16.10;39.30
70807;DHT22;58882;52.170;5.386;2023-03-16T08:55:43;16.00;39.20
70807;DHT22;58882;52.170;5.386;2023-03-16T08:58:31;16.00;40.20
70807;DHT22;58882;52.170;5.386;2023-03-16T09:01:14;16.00;39.30
70807;DHT22;58882;52.170;5.386;2023-03-16T09:04:01;16.00;39.40
70807;DHT22;58882;52.170;5.386;2023-03-16T09:06:42;16.10;39.30
70807;DHT22;58882;52.170;5.386;2023-03-16T09:09:48;16.00;39.20
70807;DHT22;58882;52.170;5.386;2023-03-16T09:12:28;16.00;39.20
70807;DHT22;58882;52.170;5.386;2023-03-16T09:15:15;16.10;39.20
70807;DHT22;58882;52.170;5.386;2023-03-16T09:17:55;16.10;39.00
70807;DHT22;58882;52.170;5.386;2023-03-16T09:20:49;16.10;39.00
70807;DHT22;58882;52.170;5.386;2023-03-16T09:23:43;16.10;38.90
70807;DHT22;58882;52.170;5.386;2023-03-16T09:26:23;16.10;39.00
70807;DHT22;58882;52.170;5.386;2023-03-16T09:29:10;16.10;39.00
70807;DHT22;58882;52.170;5.386;2023-03-16T09:31:50;16.10;38.90
70807;DHT22;58882;52.170;5.386;2023-03-16T09:34:37;16.10;38.90
70807;DHT22;58882;52.170;5.386;2023-03-16T09:37:17;16.00;38.80
70807;DHT22;58882;52.170;5.386;2023-03-16T09:40:05;16.10;38.90
70807;DHT22;58882;52.170;5.386;2023-03-16T09:48:57;16.00;38.80
70807;DHT22;58882;52.170;5.386;2023-03-16T09:55:22;16.10;38.90
70807;DHT22;58882;52.170;5.386;2023-03-16T09:58:19;16.10;38.70
70807;DHT22;58882;52.170;5.386;2023-03-16T10:04:36;16.20;38.60
70807;DHT22;58882;52.170;5.386;2023-03-16T10:13:43;16.60;38.20
70807;DHT22;58882;52.170;5.386;2023-03-16T10:16:40;16.90;38.00
70807;DHT22;58882;52.170;5.386;2023-03-16T10:19:35;17.40;37.60
70807;DHT22;58882;52.170;5.386;2023-03-16T10:22:29;17.80;36.80
70807;DHT22;58882;52.170;5.386;2023-03-16T10:25:50;18.10;37.00
70807;DHT22;58882;52.170;5.386;2023-03-16T10:28:37;18.40;35.60
70807;DHT22;58882;52.170;5.386;2023-03-16T10:31:20;18.60;36.20
70807;DHT22;58882;52.170;5.386;2023-03-16T10:34:08;19.00;34.90
70807;DHT22;58882;52.170;5.386;2023-03-16T10:36:50;19.30;34.40
70807;DHT22;58882;52.170;5.386;2023-03-16T10:39:41;19.60;33.90
70807;DHT22;58882;52.170;5.386;2023-03-16T10:42:26;19.80;33.20
70807;DHT22;58882;52.170;5.386;2023-03-16T10:45:27;20.10;32.80
70807;DHT22;58882;52.170;5.386;2023-03-16T10:48:14;20.30;32.50
70807;DHT22;58882;52.170;5.386;2023-03-16T10:51:07;20.40;32.00
70807;DHT22;58882;52.170;5.386;2023-03-16T10:53:51;20.60;31.70
70807;DHT22;58882;52.170;5.386;2023-03-16T10:56:45;20.70;31.60
70807;DHT22;58882;52.170;5.386;2023-03-16T10:59:33;20.70;31.40
70807;DHT22;58882;52.170;5.386;2023-03-16T11:02:32;20.70;31.20
70807;DHT22;58882;52.170;5.386;2023-03-16T11:05:26;20.70;31.10
70807;DHT22;58882;52.170;5.386;2023-03-16T11:08:24;20.70;31.00
70807;DHT22;58882;52.170;5.386;2023-03-16T11:11:07;20.70;31.90
70807;DHT22;58882;52.170;5.386;2023-03-16T11:14:08;20.60;30.80
70807;DHT22;58882;52.170;5.386;2023-03-16T11:17:06;20.50;30.90
70807;DHT22;58882;52.170;5.386;2023-03-16T11:20:01;20.40;30.90
70807;DHT22;58882;52.170;5.386;2023-03-16T11:22:38;20.30;30.90
70807;DHT22;58882;52.170;5.386;2023-03-16T11:25:38;20.20;31.00
70807;DHT22;58882;52.170;5.386;2023-03-16T11:28:45;20.00;30.90
70807;DHT22;58882;52.170;5.386;2023-03-16T11:31:44;19.90;31.10
70807;DHT22;58882;52.170;5.386;2023-03-16T11:34:30;19.90;31.20
70807;DHT22;58882;52.170;5.386;2023-03-16T11:37:42;19.80;31.20
70807;DHT22;58882;52.170;5.386;2023-03-16T11:40:47;19.80;31.20
70807;DHT22;58882;52.170;5.386;2023-03-16T11:46:40;19.60;31.20
70807;DHT22;58882;52.170;5.386;2023-03-16T11:52:40;19.60;31.20
70807;DHT22;58882;52.170;5.386;2023-03-16T12:01:57;19.50;31.20
70807;DHT22;58882;52.170;5.386;2023-03-16T12:05:05;19.40;31.40
70807;DHT22;58882;52.170;5.386;2023-03-16T12:13:57;19.50;31.40
70807;DHT22;58882;52.170;5.386;2023-03-16T12:16:59;19.50;32.20
70807;DHT22;58882;52.170;5.386;2023-03-16T12:20:04;19.50;31.20
70807;DHT22;58882;52.170;5.386;2023-03-16T12:23:01;19.50;31.10
70807;DHT22;58882;52.170;5.386;2023-03-16T12:25:45;19.60;31.20
70807;DHT22;58882;52.170;5.386;2023-03-16T12:28:35;19.70;31.20
70807;DHT22;58882;52.170;5.386;2023-03-16T12:31:36;19.80;31.10
70807;DHT22;58882;52.170;5.386;2023-03-16T12:34:35;19.90;30.90
70807;DHT22;58882;52.170;5.386;2023-03-16T12:37:32;20.00;30.80
70807;DHT22;58882;52.170;5.386;2023-03-16T12:43:37;20.20;30.70
70807;DHT22;58882;52.170;5.386;2023-03-16T12:49:08;20.30;30.40
70807;DHT22;58882;52.170;5.386;2023-03-16T12:52:08;20.40;30.30
70807;DHT22;58882;52.170;5.386;2023-03-16T12:57:39;20.40;30.00
70807;DHT22;58882;52.170;5.386;2023-03-16T13:00:32;20.40;30.00
70807;DHT22;58882;52.170;5.386;2023-03-16T13:03:20;20.40;30.00
70807;DHT22;58882;52.170;5.386;2023-03-16T13:06:01;20.40;29.90
70807;DHT22;58882;52.170;5.386;2023-03-16T13:08:56;20.40;29.90
70807;DHT22;58882;52.170;5.386;2023-03-16T13:11:43;20.40;29.80
70807;DHT22;58882;52.170;5.386;2023-03-16T13:14:43;20.50;29.80
70807;DHT22;58882;52.170;5.386;2023-03-16T13:17:31;20.50;29.90
70807;DHT22;58882;52.170;5.386;2023-03-16T13:20:28;20.50;29.90
70807;DHT22;58882;52.170;5.386;2023-03-16T13:26:15;20.50;29.90
70807;DHT22;58882;52.170;5.386;2023-03-16T13:28:51;20.40;29.80
70807;DHT22;58882;52.170;5.386;2023-03-16T13:31:46;20.40;29.80
70807;DHT22;58882;52.170;5.386;2023-03-16T13:34:45;20.40;29.80
70807;DHT22;58882;52.170;5.386;2023-03-16T13:37:41;20.40;29.80
70807;DHT22;58882;52.170;5.386;2023-03-16T13:40:27;20.40;29.70
70807;DHT22;58882;52.170;5.386;2023-03-16T13:43:26;20.40;29.60
70807;DHT22;58882;52.170;5.386;2023-03-16T13:46:00;20.40;29.70
70807;DHT22;58882;52.170;5.386;2023-03-16T13:48:57;20.40;29.60
70807;DHT22;58882;52.170;5.386;2023-03-16T13:51:39;20.40;29.60
70807;DHT22;58882;52.170;5.386;2023-03-16T13:54:28;20.40;29.60
70807;DHT22;58882;52.170;5.386;2023-03-16T13:57:10;20.30;29.60
70807;DHT22;58882;52.170;5.386;2023-03-16T14:00:23;20.30;29.70
70807;DHT22;58882;52.170;5.386;2023-03-16T14:03:16;20.30;29.70
70807;DHT22;58882;52.170;5.386;2023-03-16T14:06:20;20.20;29.70
70807;DHT22;58882;52.170;5.386;2023-03-16T14:09:04;20.30;29.90
70807;DHT22;58882;52.170;5.386;2023-03-16T14:11:52;20.20;29.80
70807;DHT22;58882;52.170;5.386;2023-03-16T14:14:39;20.20;29.70
70807;DHT22;58882;52.170;5.386;2023-03-16T14:17:33;20.20;29.60
70807;DHT22;58882;52.170;5.386;2023-03-16T14:20:29;20.10;29.50
70807;DHT22;58882;52.170;5.386;2023-03-16T14:23:24;20.10;30.30
70807;DHT22;58882;52.170;5.386;2023-03-16T14:26:18;20.10;29.60
70807;DHT22;58882;52.170;5.386;2023-03-16T14:29:04;20.10;29.60
70807;DHT22;58882;52.170;5.386;2023-03-16T14:31:58;20.10;29.70
70807;DHT22;58882;52.170;5.386;2023-03-16T14:34:38;20.00;29.70
70807;DHT22;58882;52.170;5.386;2023-03-16T14:37:35;20.00;29.60
70807;DHT22;58882;52.170;5.386;2023-03-16T14:40:25;20.00;29.70
70807;DHT22;58882;52.170;5.386;2023-03-16T14:43:26;20.00;29.60
70807;DHT22;58882;52.170;5.386;2023-03-16T14:46:03;20.00;29.60
70807;DHT22;58882;52.170;5.386;2023-03-16T14:49:13;20.00;29.60
70807;DHT22;58882;52.170;5.386;2023-03-16T14:51:50;20.00;29.60
70807;DHT22;58882;52.170;5.386;2023-03-16T14:54:44;20.00;29.70
70807;DHT22;58882;52.170;5.386;2023-03-16T14:57:25;19.90;29.60
70807;DHT22;58882;52.170;5.386;2023-03-16T15:00:14;19.90;29.70
70807;DHT22;58882;52.170;5.386;2023-03-16T15:03:14;19.80;29.70
70807;DHT22;58882;52.170;5.386;2023-03-16T15:06:02;19.80;29.60
70807;DHT22;58882;52.170;5.386;2023-03-16T15:08:40;19.80;29.60
70807;DHT22;58882;52.170;5.386;2023-03-16T15:11:36;19.80;29.60
70807;DHT22;58882;52.170;5.386;2023-03-16T15:14:16;19.80;29.60
70807;DHT22;58882;52.170;5.386;2023-03-16T15:17:23;19.80;29.40
70807;DHT22;58882;52.170;5.386;2023-03-16T15:19:56;19.80;29.40
70807;DHT22;58882;52.170;5.386;2023-03-16T15:22:51;19.70;29.40
70807;DHT22;58882;52.170;5.386;2023-03-16T15:25:34;19.70;29.30
70807;DHT22;58882;52.170;5.386;2023-03-16T15:28:26;19.70;29.40
70807;DHT22;58882;52.170;5.386;2023-03-16T15:31:01;19.70;29.30
70807;DHT22;58882;52.170;5.386;2023-03-16T15:33:55;19.70;29.30
70807;DHT22;58882;52.170;5.386;2023-03-16T15:36:35;19.70;29.30
70807;DHT22;58882;52.170;5.386;2023-03-16T15:39:23;19.70;29.40
70807;DHT22;58882;52.170;5.386;2023-03-16T15:42:14;19.60;29.30
70807;DHT22;58882;52.170;5.386;2023-03-16T15:45:01;19.60;29.30
70807;DHT22;58882;52.170;5.386;2023-03-16T15:47:41;19.60;29.40
70807;DHT22;58882;52.170;5.386;2023-03-16T15:50:28;19.60;29.40
70807;DHT22;58882;52.170;5.386;2023-03-16T15:53:20;19.60;29.20
70807;DHT22;58882;52.170;5.386;2023-03-16T15:56:14;19.60;29.20
70807;DHT22;58882;52.170;5.386;2023-03-16T15:59:10;19.60;29.20
70807;DHT22;58882;52.170;5.386;2023-03-16T16:01:57;19.50;29.20
70807;DHT22;58882;52.170;5.386;2023-03-16T16:04:37;19.50;29.10
70807;DHT22;58882;52.170;5.386;2023-03-16T16:07:24;19.50;29.10
70807;DHT22;58882;52.170;5.386;2023-03-16T16:10:06;19.50;29.30
70807;DHT22;58882;52.170;5.386;2023-03-16T16:12:54;19.50;29.30
70807;DHT22;58882;52.170;5.386;2023-03-16T16:15:35;19.40;29.30
70807;DHT22;58882;52.170;5.386;2023-03-16T16:18:33;19.50;29.40
70807;DHT22;58882;52.170;5.386;2023-03-16T16:21:18;19.40;29.40
70807;DHT22;58882;52.170;5.386;2023-03-16T16:24:08;19.50;29.50
70807;DHT22;58882;52.170;5.386;2023-03-16T16:26:48;19.40;29.40
70807;DHT22;58882;52.170;5.386;2023-03-16T16:29:35;19.40;29.60
70807;DHT22;58882;52.170;5.386;2023-03-16T16:32:21;19.40;29.70
70807;DHT22;58882;52.170;5.386;2023-03-16T16:35:16;19.40;29.80
70807;DHT22;58882;52.170;5.386;2023-03-16T16:37:50;19.30;29.80
70807;DHT22;58882;52.170;5.386;2023-03-16T16:40:44;19.40;29.90
70807;DHT22;58882;52.170;5.386;2023-03-16T16:43:43;19.30;29.80
70807;DHT22;58882;52.170;5.386;2023-03-16T16:46:39;19.30;29.90
70807;DHT22;58882;52.170;5.386;2023-03-16T16:49:25;19.30;30.00
70807;DHT22;58882;52.170;5.386;2023-03-16T16:52:20;19.30;30.00
70807;DHT22;58882;52.170;5.386;2023-03-16T16:55:00;19.20;30.00
70807;DHT22;58882;52.170;5.386;2023-03-16T16:57:52;19.20;30.00
70807;DHT22;58882;52.170;5.386;2023-03-16T17:00:32;19.20;30.10
70807;DHT22;58882;52.170;5.386;2023-03-16T17:03:25;19.20;31.20
70807;DHT22;58882;52.170;5.386;2023-03-16T17:06:14;19.20;30.30
70807;DHT22;58882;52.170;5.386;2023-03-16T17:09:01;19.10;30.30
70807;DHT22;58882;52.170;5.386;2023-03-16T17:11:43;19.10;30.30
70807;DHT22;58882;52.170;5.386;2023-03-16T17:14:37;19.10;30.40
70807;DHT22;58882;52.170;5.386;2023-03-16T17:17:15;19.10;30.50
70807;DHT22;58882;52.170;5.386;2023-03-16T17:20:14;19.00;30.60
70807;DHT22;58882;52.170;5.386;2023-03-16T17:23:25;19.00;30.60
70807;DHT22;58882;52.170;5.386;2023-03-16T17:26:27;19.00;30.80
70807;DHT22;58882;52.170;5.386;2023-03-16T17:32:20;18.90;30.70
70807;DHT22;58882;52.170;5.386;2023-03-16T17:35:14;18.90;30.90
70807;DHT22;58882;52.170;5.386;2023-03-16T17:38:01;18.90;31.00
70807;DHT22;58882;52.170;5.386;2023-03-16T17:40:41;18.80;31.00
70807;DHT22;58882;52.170;5.386;2023-03-16T17:43:28;18.80;31.10
70807;DHT22;58882;52.170;5.386;2023-03-16T17:46:10;18.80;31.20
70807;DHT22;58882;52.170;5.386;2023-03-16T17:48:57;18.70;31.20
70807;DHT22;58882;52.170;5.386;2023-03-16T17:51:38;18.70;31.30
70807;DHT22;58882;52.170;5.386;2023-03-16T17:54:25;18.70;31.40
70807;DHT22;58882;52.170;5.386;2023-03-16T17:57:30;18.70;31.40
70807;DHT22;58882;52.170;5.386;2023-03-16T18:00:33;18.70;31.40
70807;DHT22;58882;52.170;5.386;2023-03-16T18:03:14;18.60;31.40
70807;DHT22;58882;52.170;5.386;2023-03-16T18:06:03;18.60;31.40
70807;DHT22;58882;52.170;5.386;2023-03-16T18:08:43;18.50;31.40
70807;DHT22;58882;52.170;5.386;2023-03-16T18:11:34;18.50;31.40
70807;DHT22;58882;52.170;5.386;2023-03-16T18:14:21;18.50;31.60
70807;DHT22;58882;52.170;5.386;2023-03-16T18:17:28;18.40;31.60
70807;DHT22;58882;52.170;5.386;2023-03-16T18:23:18;18.40;31.80
70807;DHT22;58882;52.170;5.386;2023-03-16T18:26:00;18.40;31.90
70807;DHT22;58882;52.170;5.386;2023-03-16T18:28:54;18.30;32.00
70807;DHT22;58882;52.170;5.386;2023-03-16T18:31:28;18.30;32.10
70807;DHT22;58882;52.170;5.386;2023-03-16T18:34:23;18.30;32.10
70807;DHT22;58882;52.170;5.386;2023-03-16T18:36:58;18.20;32.20
70807;DHT22;58882;52.170;5.386;2023-03-16T18:39:53;18.20;32.40
70807;DHT22;58882;52.170;5.386;2023-03-16T18:42:27;18.20;32.60
70807;DHT22;58882;52.170;5.386;2023-03-16T18:45:21;18.20;32.70
70807;DHT22;58882;52.170;5.386;2023-03-16T18:47:55;18.10;33.00